createdAt,value
2022-10-20T00:02:44.808Z,1.30
2022-10-20T00:07:56.228Z,1.40
2022-10-20T00:13:07.589Z,1.43
2022-10-20T00:18:17.769Z,1.00
2022-10-20T00:23:31.708Z,1.03
2022-10-20T00:28:41.480Z,1.20
2022-10-20T00:33:52.766Z,1.13
2022-10-20T00:39:08.158Z,1.40
2022-10-20T00:44:22.370Z,1.30
2022-10-20T00:49:34.374Z,1.63
2022-10-20T00:54:45.916Z,1.20
2022-10-20T00:59:57.114Z,1.73
2022-10-20T01:05:08.698Z,1.13
2022-10-20T01:10:20.217Z,1.17
2022-10-20T01:15:35.002Z,1.47
2022-10-20T01:20:46.008Z,1.33
2022-10-20T01:25:58.688Z,1.20
2022-10-20T01:31:11.223Z,1.47
2022-10-20T01:36:23.824Z,1.33
2022-10-20T01:41:37.674Z,1.50
2022-10-20T01:46:48.837Z,1.30
2022-10-20T01:51:58.738Z,1.40
2022-10-20T01:57:10.808Z,1.13
2022-10-20T02:02:22.297Z,1.50
2022-10-20T02:07:35.007Z,1.20
2022-10-20T02:12:46.929Z,1.20
2022-10-20T02:17:59.037Z,1.33
2022-10-20T02:23:10.587Z,1.47
2022-10-20T02:28:21.431Z,1.20
2022-10-20T02:33:32.477Z,1.20
2022-10-20T02:38:43.327Z,1.20
2022-10-20T02:43:54.899Z,1.30
2022-10-20T02:49:05.063Z,1.40
2022-10-20T02:54:15.248Z,1.10
2022-10-20T02:59:25.049Z,1.00
2022-10-20T03:04:35.600Z,1.50
2022-10-20T03:09:45.837Z,1.40
2022-10-20T03:14:55.930Z,1.50
2022-10-20T03:20:06.791Z,1.40
2022-10-20T03:25:20.863Z,1.47
2022-10-20T03:30:33.476Z,1.30
2022-10-20T03:35:46.358Z,1.33
2022-10-20T03:40:58.211Z,1.47
2022-10-20T03:46:13.069Z,1.37
2022-10-20T03:51:23.277Z,1.47
2022-10-20T03:56:33.549Z,1.20
2022-10-20T04:01:46.209Z,1.20
2022-10-20T04:06:57.174Z,1.10
2022-10-20T04:12:07.603Z,1.30
2022-10-20T04:17:18.538Z,1.23
2022-10-20T04:22:29.882Z,1.40
2022-10-20T04:27:42.149Z,1.40
2022-10-20T04:32:52.440Z,1.47
2022-10-20T04:38:03.138Z,1.17
2022-10-20T04:43:14.428Z,1.30
2022-10-20T04:48:24.369Z,1.43
2022-10-20T04:53:34.250Z,1.70
2022-10-20T04:58:44.017Z,1.63
2022-10-20T05:03:54.559Z,1.53
2022-10-20T05:09:06.754Z,1.53
2022-10-20T05:14:15.721Z,1.87
2022-10-20T05:19:28.989Z,1.50
2022-10-20T05:24:40.419Z,1.90
2022-10-20T05:29:53.438Z,1.50
2022-10-20T05:35:07.397Z,1.77
2022-10-20T05:40:17.715Z,2.17
2022-10-20T05:45:31.124Z,1.83
2022-10-20T05:50:41.456Z,1.70
2022-10-20T05:55:51.192Z,1.80
2022-10-20T06:01:07.120Z,1.70
2022-10-20T06:06:22.863Z,1.80
2022-10-20T06:11:39.343Z,1.87
2022-10-20T06:16:55.379Z,2.27
2022-10-20T06:22:06.998Z,2.30
2022-10-20T06:27:21.982Z,1.70
2022-10-20T06:32:31.797Z,2.13
2022-10-20T06:37:43.904Z,2.57
2022-10-20T06:42:53.354Z,2.57
2022-10-20T06:48:03.575Z,2.90
2022-10-20T06:53:13.801Z,2.40
2022-10-20T06:58:22.468Z,3.07
2022-10-20T07:03:33.458Z,2.90
2022-10-20T07:08:47.151Z,2.70
2022-10-20T07:13:55.979Z,2.70
2022-10-20T07:19:07.000Z,3.20
2022-10-20T07:24:17.759Z,2.53
2022-10-20T07:29:29.671Z,2.60
2022-10-20T07:34:45.865Z,2.90
2022-10-20T07:39:54.887Z,3.30
2022-10-20T07:45:05.430Z,2.53
2022-10-20T07:50:15.438Z,2.23
2022-10-20T07:55:38.650Z,2.83
2022-10-20T08:00:43.669Z,3.40
2022-10-20T08:05:53.847Z,2.83
2022-10-20T08:11:10.364Z,3.10
2022-10-20T08:21:53.259Z,3.10
2022-10-20T08:27:06.974Z,3.23
2022-10-20T08:32:19.198Z,3.00
2022-10-20T08:37:31.901Z,3.00
2022-10-20T08:42:47.158Z,2.50
2022-10-20T08:47:59.444Z,3.17
2022-10-20T08:53:12.160Z,2.83
2022-10-20T08:58:25.972Z,2.93
2022-10-20T09:03:38.845Z,3.07
2022-10-20T09:08:51.395Z,3.07
2022-10-20T09:14:00.198Z,3.33
2022-10-20T09:19:16.092Z,2.97
2022-10-20T09:24:27.948Z,2.77
2022-10-20T09:29:45.259Z,3.27
2022-10-20T09:35:03.200Z,3.03
2022-10-20T09:40:17.322Z,3.37
2022-10-20T09:45:34.699Z,3.40
2022-10-20T09:50:47.455Z,3.77
2022-10-20T09:55:57.665Z,3.17
2022-10-20T10:01:08.823Z,3.87
2022-10-20T10:06:25.937Z,3.50
2022-10-20T10:11:41.460Z,3.50
2022-10-20T10:16:56.768Z,3.30
2022-10-20T10:22:07.967Z,3.90
2022-10-20T10:27:26.406Z,3.97
2022-10-20T10:32:53.495Z,3.60
2022-10-20T10:38:08.681Z,3.50
2022-10-20T10:43:28.518Z,3.83
2022-10-20T10:48:49.232Z,3.03
2022-10-20T10:54:08.020Z,3.13
2022-10-20T10:59:18.632Z,3.33
2022-10-20T11:04:29.848Z,3.57
2022-10-20T11:09:43.210Z,3.43
2022-10-20T11:14:58.698Z,3.57
2022-10-20T11:20:11.935Z,3.50
2022-10-20T11:25:21.497Z,3.30
2022-10-20T11:30:36.489Z,3.83
2022-10-20T11:35:48.317Z,3.60
2022-10-20T11:41:05.236Z,3.23
2022-10-20T11:46:16.324Z,4.10
2022-10-20T11:51:31.513Z,3.60
2022-10-20T11:56:43.677Z,4.17
2022-10-20T12:01:58.254Z,3.77
2022-10-20T12:07:12.026Z,3.83
2022-10-20T12:12:28.559Z,4.03
2022-10-20T12:17:42.584Z,3.97
2022-10-20T12:22:53.958Z,3.60
2022-10-20T12:28:06.547Z,3.70
2022-10-20T12:33:25.149Z,4.10
2022-10-20T12:38:35.823Z,3.63
2022-10-20T12:43:49.341Z,3.93
2022-10-20T12:49:05.521Z,4.00
2022-10-20T12:54:19.800Z,4.37
2022-10-20T12:59:32.286Z,3.63
2022-10-20T13:04:46.722Z,4.10
2022-10-20T13:10:04.499Z,4.00
2022-10-20T13:15:20.493Z,3.93
2022-10-20T13:20:31.861Z,4.13
2022-10-20T13:25:49.348Z,3.93
2022-10-20T13:31:05.612Z,4.37
2022-10-20T13:36:20.489Z,4.10
2022-10-20T13:41:36.285Z,3.93
2022-10-20T13:46:51.558Z,4.40
2022-10-20T13:52:03.129Z,4.37
2022-10-20T13:57:17.037Z,3.63
2022-10-20T14:02:29.200Z,3.87
2022-10-20T14:08:04.555Z,3.80
2022-10-20T14:13:17.547Z,4.20
2022-10-20T14:18:33.152Z,4.20
2022-10-20T14:23:45.155Z,3.90
2022-10-20T14:28:56.144Z,4.53
2022-10-20T14:34:08.260Z,3.93
2022-10-20T14:39:20.384Z,3.83
2022-10-20T14:44:32.194Z,3.90
2022-10-20T14:49:50.091Z,4.20
2022-10-20T14:54:57.393Z,4.47
2022-10-20T15:00:08.529Z,3.77
2022-10-20T15:05:20.330Z,3.60
2022-10-20T15:10:35.773Z,4.17
2022-10-20T15:15:46.069Z,3.73
2022-10-20T15:20:56.499Z,4.13
2022-10-20T15:26:10.643Z,3.57
2022-10-20T15:31:24.804Z,3.40
2022-10-20T15:36:42.076Z,4.07
2022-10-20T15:41:53.836Z,3.50
2022-10-20T15:47:03.025Z,3.97
2022-10-20T15:52:27.475Z,3.43
2022-10-20T15:57:39.239Z,3.80
2022-10-20T16:02:52.250Z,3.50
2022-10-20T16:08:02.382Z,3.30
2022-10-20T16:13:18.386Z,4.20
2022-10-20T16:18:32.853Z,3.30
2022-10-20T16:23:45.297Z,3.80
2022-10-20T16:28:55.248Z,2.97
2022-10-20T16:34:05.678Z,3.87
2022-10-20T16:39:17.742Z,3.20
2022-10-20T16:44:28.197Z,2.93
2022-10-20T16:49:42.077Z,3.20
2022-10-20T16:54:57.471Z,3.40
2022-10-20T17:00:07.969Z,3.10
2022-10-20T17:05:18.304Z,3.57
2022-10-20T17:10:30.003Z,3.63
2022-10-20T17:15:43.360Z,3.93
2022-10-20T17:20:59.162Z,3.37
2022-10-20T17:26:08.776Z,4.57
2022-10-20T17:31:19.846Z,3.77
2022-10-20T17:36:33.978Z,3.13
2022-10-20T17:41:46.266Z,3.20
2022-10-20T17:46:55.337Z,3.37
2022-10-20T17:52:06.269Z,3.37
2022-10-20T17:57:17.872Z,3.10
2022-10-20T18:02:30.382Z,2.97
2022-10-20T18:07:39.445Z,3.57
2022-10-20T18:12:52.079Z,3.63
2022-10-20T18:18:04.198Z,3.97
2022-10-20T18:23:21.607Z,3.10
2022-10-20T18:28:35.816Z,3.40
2022-10-20T18:33:47.845Z,3.77
2022-10-20T18:38:59.602Z,4.20
2022-10-20T18:44:13.402Z,3.60
2022-10-20T18:49:29.152Z,3.63
2022-10-20T18:54:43.659Z,3.83
2022-10-20T18:59:55.212Z,3.37
2022-10-20T19:05:06.906Z,3.77
2022-10-20T19:10:18.941Z,4.37
2022-10-20T19:15:27.824Z,3.53
2022-10-20T19:20:38.978Z,3.43
2022-10-20T19:25:49.108Z,4.13
2022-10-20T19:31:18.405Z,4.00
2022-10-20T19:36:30.084Z,3.27
2022-10-20T19:41:42.226Z,4.00
2022-10-20T19:46:56.179Z,3.90
2022-10-20T19:52:09.780Z,3.90
2022-10-20T19:57:20.818Z,3.67
2022-10-20T20:02:34.907Z,3.77
2022-10-20T20:07:50.053Z,3.50
2022-10-20T20:13:04.238Z,3.70
2022-10-20T20:18:15.444Z,3.47
2022-10-20T20:23:40.740Z,2.90
2022-10-20T20:28:38.003Z,3.73
2022-10-20T20:33:48.750Z,3.67
2022-10-20T20:39:02.873Z,3.10
2022-10-20T20:44:17.692Z,3.57
2022-10-20T20:49:27.679Z,3.47
2022-10-20T20:54:41.704Z,4.20
2022-10-20T20:59:53.316Z,3.97
2022-10-20T21:05:08.911Z,3.40
2022-10-20T21:10:17.313Z,4.03
2022-10-20T21:15:30.551Z,3.37
2022-10-20T21:20:43.463Z,3.83
2022-10-20T21:25:58.390Z,4.30
2022-10-20T21:31:10.824Z,3.90
2022-10-20T21:36:20.487Z,3.87
2022-10-20T21:41:36.416Z,3.47
2022-10-20T21:46:49.092Z,3.87
2022-10-20T21:51:59.218Z,3.83
2022-10-20T21:57:13.861Z,4.10
2022-10-20T22:02:22.763Z,3.10
2022-10-20T22:07:36.911Z,4.73
2022-10-20T22:12:47.262Z,3.17
2022-10-20T22:17:58.199Z,3.87
2022-10-20T22:23:10.141Z,4.13
2022-10-20T22:28:20.328Z,3.10
2022-10-20T22:33:30.829Z,3.23
2022-10-20T22:38:40.938Z,3.80
2022-10-20T22:43:54.759Z,3.30
2022-10-20T22:49:07.879Z,3.30
2022-10-20T22:54:21.947Z,3.53
2022-10-20T22:59:34.695Z,3.87
2022-10-20T23:04:46.878Z,3.63
2022-10-20T23:09:58.663Z,4.03
2022-10-20T23:15:09.035Z,3.93
2022-10-20T23:20:20.664Z,3.30
2022-10-20T23:25:31.373Z,3.77
2022-10-20T23:30:43.765Z,3.97
2022-10-20T23:35:54.488Z,3.20
2022-10-20T23:41:05.568Z,3.63
2022-10-20T23:46:19.799Z,3.70
2022-10-20T23:51:30.323Z,3.47
2022-10-20T23:56:41.358Z,3.53
